VAM | Vabird-VBD

Virtual Vabird! Aerolínea Virtual de habla hispana, desde 2011




 INFORMACIÓN METAR y TAF
METAR FOR UKBB
ADDS - METARS form results

(2311 UTC 09 May 2021)
Data provider http://aviationweather.gov/metar/data/
 
METAR text: UKBB 092300Z 00000MPS CAVOK 03/02 Q1025 R36R/CLRD// NOSIG
Conditions at: UKBB (BORISPOL'/KIEV , UA) observed 2300 UTC 09 May 2021
Temperature: 3.0°C (37°F)
Dewpoint: 2.0°C (36°F) [RH = 93%]
Pressure (altimeter): 30.27 inches Hg (1025.0 mb)
Winds: calm
Visibility: 6 or more miles (10+ km)
Ceiling: ceiling and visibility are OK
Clouds: unknown
Weather: no significant weather observed at this time

METAR text: UKBB 092230Z 00000MPS CAVOK 03/00 Q1025 R36R/CLRD// NOSIG
Conditions at: UKBB (BORISPOL'/KIEV , UA) observed 2230 UTC 09 May 2021
Temperature: 3.0°C (37°F)
Dewpoint: 0.0°C (32°F) [RH = 81%]
Pressure (altimeter): 30.27 inches Hg (1025.0 mb)
Winds: calm
Visibility: 6 or more miles (10+ km)
Ceiling: ceiling and visibility are OK
Clouds: unknown
Weather: no significant weather observed at this time

Forecast for: UKBB (BORISPOL'/KIEV , UA)
Text: TAF UKBB 091700Z 0918/1018 VRB01MPS 9999 SCT040 TX18/1013Z TN03/1003Z
Forecast period: 1800 UTC 09 May 2021 to 0800 UTC 10 May 2021
Forecast type: FROM: standard forecast or significant change
Winds: variable direction winds at 2 MPH (2 knots; 1.0 m/s)
Visibility: 6 or more miles (10+ km)
Ceiling: at least 12,000 feet AGL
Clouds: scattered clouds at 4000 feet AGL
Weather: no significant weather forecast for this period
Text: TEMPO 0920/1004 2100 BR SCT010
Forecast period: 2000 UTC 09 May 2021 to 0400 UTC 10 May 2021
Forecast type: TEMPORARY: The following changes expected for less than half the time period
Visibility: 1.30 miles (2.09 km)
Ceiling: at least 12,000 feet AGL
Clouds: scattered clouds at 1000 feet AGL
Weather: BR  (mist)
Text: BECMG 1008/1010 05003G08MPS
Forecast period: 0800 to 1800 UTC 10 May 2021
Forecast type: BECOMING: Conditions expected to become as follows by 1000 UTC 10 May 2021
Winds: from the NE (50 degrees) at 7 MPH (6 knots; 3.1 m/s)
gusting to 18 MPH (16 knots; 8.2 m/s)
Visibility: 6 or more miles (10+ km)
Ceiling: at least 12,000 feet AGL
Clouds: scattered clouds at 4000 feet AGL
Weather: no significant weather forecast for this period

 MAPA DE AEROPUERTO

 INFORMACIÓN DE PISTA